Tiempo atmosférico en la estación meteorológica de Gaucín, Málaga (545 m.)



Fecha
DESCASC
Temp. máxima en grados centígrados (hora)
DESCASC
Temp. mínima en grados centígrados (hora)
DESCASC
Temp. media en grados centígrados
DESCASC
Racha de viento máxima en m/sg (hora)
DESCASC
Velocidad máxima media en intervalos de 10 minutos(hora)
DESCASC
Precipitaciones diarias en mm
DESCASC
Precipitaciones de 00:00 a 06:00 en mm
DESCASC
Precipitaciones de 06:00 a 12:00 en mm
DESCASC
Precipitaciones de 12:00 a 18:00 en mm
DESCASC
Precipitaciones de 18:00 a 24:00 en mm
DESCASC
22-11-2020 16.4 (14:10) 9.5 (23:30) 12.9 6.39 (00:30) 2.22 (00:10) 0 0 0 0 0
21-11-2020 14.3 (11:30) 11.6 (23:10) 13 6.39 (21:50) 2.22 (17:50) 0 0 0 0 0
20-11-2020 20 (14:00) 11.9 (23:30) 15.9 6.94 (05:40) 3.61 (14:50) 0 0 0 0 0
19-11-2020 20 (14:10) 10.6 (00:00) 15.3 9.44 (17:30) 3.61 (17:30) 0 0 0 0 0
18-11-2020 19.3 (15:10) 11 (00:00) 15.1 5 (12:20) 3.33 (02:30) 0.4 0.2 0 0.2 0
17-11-2020 20.3 (13:40) 12.2 (00:00) 16.2 5.28 (13:50) 3.89 (05:50) 0 0 0 0 0
16-11-2020 23.3 (14:30) 14.1 (00:00) 18.7 8.33 (15:00) 3.61 (14:50) 0 0 0 0 0
15-11-2020 21.8 (16:40) 12.1 (00:00) 16.9 4.72 (07:40) 3.89 (06:20) 0.2 0 0 0.2 0
14-11-2020 16 (16:20) 13.4 (00:00) 14.7 4.17 (12:50) 2.5 (12:30) 2.2 0 1.2 0.8 0.2
13-11-2020 17 (12:00) 12.6 (00:00) 14.8 5.56 (12:40) 2.5 (11:40) 0 0 0 0 0
12-11-2020 18 (14:50) 12 (00:00) 15 5.83 (11:50) 2.78 (13:40) 0 0 0 0 0
11-11-2020 17.1 (15:30) 12.4 (00:00) 14.8 8.33 (04:00) 2.22 (17:00) 0 0 0 0 0
10-11-2020 19.5 (13:30) 9.6 (00:00) 14.6 6.39 (13:40) 3.89 (15:20) 0 0 0 0 0
09-11-2020 -- (--) -- (--) -- -- (--) -- (--) 0.2 0 0.2 0 0
08-11-2020 18.8 (16:10) 12.4 (00:00) 15.6 7.78 (13:50) 5 (14:30) 0 0 0 0 0
07-11-2020 18.4 (16:10) 12.4 (00:00) 15.4 10.28 (15:00) 5.83 (04:30) 3.2 2.6 0.6 0 0
06-11-2020 21.7 (14:10) 14.2 (00:00) 18 12.22 (03:30) 4.17 (23:40) 0.6 0 0 0 0.6
05-11-2020 18.4 (15:20) 11.8 (00:00) 15.1 17.5 (05:00) 8.33 (05:30) 38.4 9 29.4 0 0
04-11-2020 15.5 (11:30) 11.9 (00:00) 13.7 17.5 (23:50) 9.44 (23:40) 18.2 0 0.4 1.2 16.6
03-11-2020 20.8 (11:50) 12.6 (00:00) 16.7 5.28 (06:00) 4.17 (04:50) 0 0 0 0 0
02-11-2020 22.1 (15:00) 13.8 (00:00) 18 4.44 (23:10) 3.33 (23:10) 0 0 0 0 0
01-11-2020 22.8 (14:00) 12.4 (00:00) 17.6 5 (13:10) 4.17 (06:50) 0 0 0 0 0
31-10-2020 22.9 (15:10) 12 (00:00) 17.4 5.28 (15:10) 3.33 (09:30) 0 0 0 0 0
30-10-2020 22 (12:50) 13.8 (00:00) 17.9 6.67 (14:50) 4.44 (14:50) 0 0 0 0 0
29-10-2020 23.2 (14:00) 11.5 (00:00) 17.4 5.28 (13:30) 3.33 (03:50) 0 0 0 0 0
28-10-2020 21 (15:30) 9.1 (00:00) 15.1 5.83 (14:10) 4.72 (07:10) 0 0 0 0 0
27-10-2020 19.7 (15:40) 5.9 (00:00) 12.8 6.39 (20:40) 3.61 (20:40) 0 0 0 0 0

Gráficas

Temp. máximas Temp. mínimas Temp. medias Precipitaciones Rachas de viento máximas Velocidades máximas media en intervalos de 10 minutos

Datos horarios

Fecha y hora oficial Temperatura (ºC) Velocidad del viento (km/h) Dirección del viento Racha (km/h) Dirección de racha Precipitación (mm) Presión (hPa) Tendencia (hPa) Humedad (%)
2020-11-25 23:00:00 10.7 12 Sudoeste 22 Sudoeste 0 -- -- 95
2020-11-25 22:00:00 10 3 Sudoeste 17 Sudoeste 4.6 -- -- 95
2020-11-25 21:00:00 9.8 9 Sur 31 Sudoeste 9.2 -- -- 94
2020-11-25 20:00:00 10 0 Calma 10 Este 0.6 -- -- 93
2020-11-25 19:00:00 9.9 6 Este 16 Nordeste 0.6 -- -- 90
2020-11-25 18:00:00 9.7 5 Este 14 Este 0.4 -- -- 94
2020-11-25 17:00:00 9.4 6 Nordeste 41 Noroeste 9 -- -- 93
2020-11-25 16:00:00 11.4 3 Sudoeste 8 Sudoeste 1.6 -- -- 95
2020-11-25 15:00:00 11.7 3 Sudoeste 16 Sur 0.6 -- -- 95
2020-11-25 14:00:00 12.2 9 Sudoeste 25 Sudoeste 0.6 -- -- 94
2020-11-25 13:00:00 12.6 14 Sudoeste 24 Sudoeste 0 -- -- 90
2020-11-25 12:00:00 12.6 11 Sudoeste 24 Sudoeste 0 -- -- 94
2020-11-25 11:00:00 12 8 Sudoeste 21 Sudoeste 0 -- -- 95
2020-11-25 10:00:00 11.8 9 Sudoeste 21 Sur 0 -- -- 95
2020-11-25 09:00:00 11.7 9 Sudoeste 16 Sudoeste 0 -- -- 94
2020-11-25 08:00:00 11.6 3 Sudoeste 10 Sudoeste 0 -- -- 93
2020-11-25 07:00:00 11.5 2 Sudoeste 5 Sudoeste 0 -- -- 92
2020-11-25 06:00:00 11.2 0 Calma 4 Este 0 -- -- 92
2020-11-25 05:00:00 11.3 2 Norte 5 Oeste 0 -- -- 91
2020-11-25 04:00:00 11.4 3 Oeste 14 Sur 0 -- -- 92
2020-11-25 03:00:00 11.4 0 Calma 8 Noroeste 0 -- -- 95
2020-11-25 02:00:00 11.7 0 Calma 5 Sudoeste 0 -- -- 94
2020-11-25 01:00:00 11.6 2 Sudoeste 14 Noroeste 0 -- -- 94
2020-11-25 00:00:00 11.6 2 Sudoeste 18 Oeste 0 -- -- 95
2020-11-24 23:00:00 11.5 6 Sudoeste 20 Oeste 0 -- -- 94
2020-11-24 22:00:00 11.4 4 Sudoeste 13 Sudoeste 0 -- -- 93
2020-11-24 21:00:00 11.4 8 Sudoeste 16 Sudoeste 0 -- -- 91
2020-11-24 20:00:00 11.8 0 Calma 4 Oeste 0 -- -- 87
2020-11-24 19:00:00 11.9 0 Calma 3 Nordeste 0 -- -- 85
2020-11-24 18:00:00 12.3 0 Calma 16 Sudoeste 0 -- -- 84
2020-11-24 17:00:00 13.6 8 Sudoeste 14 Sudoeste 0 -- -- 79
2020-11-24 16:00:00 14.2 7 Sudoeste 21 Sudoeste 0 -- -- 74
2020-11-24 15:00:00 15.1 8 Sudoeste 24 Sudoeste 0 -- -- 72
2020-11-24 14:00:00 15.2 11 Sudoeste 20 Sudoeste 0 -- -- 70
2020-11-24 13:00:00 14.7 12 Sudoeste 18 Sudoeste 0 -- -- 70
2020-11-24 12:00:00 13.8 6 Sudoeste 14 Sur 0 -- -- 74
2020-11-24 11:00:00 12.5 7 Sudoeste 14 Sudoeste 0 -- -- 79
2020-11-24 10:00:00 10.9 4 Sudoeste 10 Sur 0 -- -- 83
2020-11-24 09:00:00 10 0 Calma 8 Nordeste 0 -- -- 83
2020-11-24 08:00:00 9.9 2 Este 8 Este 0 -- -- 81
2020-11-24 07:00:00 9.5 2 Sudeste 8 Este 0 -- -- 83
2020-11-24 06:00:00 9.6 0 Calma 9 Sur 0 -- -- 80
2020-11-24 05:00:00 9.2 4 Nordeste 7 Este 0 -- -- 79
2020-11-24 04:00:00 9.4 0 Calma 10 Este 0 -- -- 79
2020-11-24 03:00:00 9.5 3 Nordeste 8 Este 0 -- -- 77
2020-11-24 02:00:00 10 4 Este 12 Este 0 -- -- 72
2020-11-24 01:00:00 9.9 3 Este 13 Este 0 -- -- 74
2020-11-24 00:00:00 9.8 3 Nordeste 13 Nordeste 0 -- -- 73
2020-11-23 23:00:00 10.1 5 Este 12 Este 0 -- -- 69
2020-11-23 22:00:00 9.8 3 Norte 15 Este 0 -- -- 70
2020-11-23 21:00:00 9.7 2 Nordeste 12 Norte 0 -- -- 75
2020-11-23 20:00:00 9.8 3 Este 8 Este 0 -- -- 79
2020-11-23 19:00:00 10.4 2 Sudoeste 8 Noroeste 0 -- -- 78
2020-11-23 18:00:00 12.3 2 Sudeste 14 Sudeste 0 -- -- 74
2020-11-23 17:00:00 14.1 3 Norte 12 Este 0 -- -- 65
2020-11-23 16:00:00 15.2 5 Este 14 Este 0 -- -- 63
2020-11-23 15:00:00 16 6 Sudoeste 17 Sudoeste 0 -- -- 62
2020-11-23 14:00:00 16.4 9 Sudoeste 21 Sudoeste 0 -- -- 59
2020-11-23 13:00:00 15.6 7 Sudoeste 22 Sur 0 -- -- 60
2020-11-23 12:00:00 14.8 4 Sudoeste 12 Oeste 0 -- -- 63
2020-11-23 11:00:00 13.2 4 Sudeste 12 Este 0 -- -- 67
2020-11-23 10:00:00 10.5 3 Sur 12 Este 0 -- -- 75
2020-11-23 09:00:00 9.2 4 Oeste 10 Oeste 0 -- -- 80
2020-11-23 08:00:00 9.2 3 Nordeste 15 Nordeste 0 -- -- 78
2020-11-23 07:00:00 9.4 3 Sudeste 12 Nordeste 0 -- -- 79
2020-11-23 06:00:00 9.5 3 Noroeste 13 Este 0 -- -- 78
2020-11-23 05:00:00 8.9 2 Oeste 10 Norte 0 -- -- 80
2020-11-23 04:00:00 9.2 3 Noroeste 10 Noroeste 0 -- -- 80
2020-11-23 03:00:00 9.5 3 Nordeste 9 Noroeste 0 -- -- 79
2020-11-23 02:00:00 9.8 3 Norte 14 Este 0 -- -- 79
2020-11-23 01:00:00 9.8 2 Sudoeste 15 Nordeste 0 -- -- 79
2020-11-23 00:00:00 9.7 3 Oeste 19 Este 0 -- -- 78
2020-11-22 23:00:00 9.9 4 Norte 14 Nordeste 0 -- -- 74
2020-11-22 22:00:00 10.1 4 Nordeste 11 Norte 0 -- -- 71
2020-11-22 21:00:00 10.4 5 Norte 14 Norte 0 -- -- 66
2020-11-22 20:00:00 10.6 5 Oeste 21 Este 0 -- -- 65
2020-11-22 19:00:00 10.8 4 Noroeste 15 Sudoeste 0 -- -- 63
2020-11-22 18:00:00 12.4 4 Sudoeste 14 Sudeste 0 -- -- 66
2020-11-22 17:00:00 14.1 5 Sudeste 15 Sur 0 -- -- 62
2020-11-22 16:00:00 15.5 5 Este 14 Oeste 0 -- -- 59
2020-11-22 15:00:00 16.2 5 Sur 17 Sur 0 -- -- 56
2020-11-22 14:00:00 16.2 4 Sudeste 19 Norte 0 -- -- 56
2020-11-22 13:00:00 15.8 7 Oeste 16 Sur 0 -- -- 58
2020-11-22 12:00:00 14.7 6 Sudoeste 20 Este 0 -- -- 61
2020-11-22 11:00:00 13.7 6 Sur 15 Sudeste 0 -- -- 69
2020-11-22 10:00:00 11.4 5 Sur 20 Sur 0 -- -- 75
2020-11-22 09:00:00 10.3 4 Oeste 15 Sudeste 0 -- -- 78
2020-11-22 08:00:00 10 3 Sur 11 Oeste 0 -- -- 79
2020-11-22 07:00:00 10.5 3 Oeste 12 Oeste 0 -- -- 78
2020-11-22 06:00:00 10.8 2 Oeste 16 Sudeste 0 -- -- 80
2020-11-22 05:00:00 10.5 4 Oeste 15 Sur 0 -- -- 78
2020-11-22 04:00:00 11 5 Sudoeste 19 Oeste 0 -- -- 78
2020-11-22 03:00:00 11.6 5 Sur 19 Sudeste 0 -- -- 77
2020-11-22 02:00:00 11.7 4 Sur 19 Sudeste 0 -- -- 78
2020-11-22 01:00:00 11.6 5 Sudoeste 23 Sur 0 -- -- 81
2020-11-22 00:00:00 11.7 6 Sudoeste 18 Sudoeste 0 -- -- 80
2020-11-21 23:00:00 11.7 6 Sudoeste 21 Sudeste 0 -- -- 79
2020-11-21 22:00:00 12 6 Oeste 23 Sur 0 -- -- 80
2020-11-21 21:00:00 12 8 Oeste 21 Sudeste 0 -- -- 76
2020-11-21 20:00:00 11.9 6 Oeste 17 Oeste 0 -- -- 79
2020-11-21 19:00:00 12 6 Oeste 15 Noroeste 0 -- -- 80
2020-11-21 18:00:00 13.1 7 Sudoeste 19 Oeste 0 -- -- 73
2020-11-21 17:00:00 13.7 7 Sudoeste 17 Sudeste 0 -- -- 73
2020-11-21 16:00:00 13.6 5 Sur 18 Este 0 -- -- 75
2020-11-21 15:00:00 13.4 5 Sudoeste 17 Este 0 -- -- 81
2020-11-21 14:00:00 13.7 5 Sur 18 Sur 0 -- -- 78
2020-11-21 13:00:00 13.4 5 Sur 20 Sur 0 -- -- 80
2020-11-21 12:00:00 14 4 Sudeste 20 Sur 0 -- -- 79
2020-11-21 11:00:00 13.8 4 Sudoeste 14 Sur 0 -- -- 85
2020-11-21 10:00:00 13.5 4 Sudoeste 12 Sur 0 -- -- 88
2020-11-21 09:00:00 13.3 2 Noroeste 9 Sudeste 0 -- -- 85
2020-11-21 08:00:00 13.1 4 Sudeste 12 Sudeste 0 -- -- 85
2020-11-21 07:00:00 12.5 3 Noroeste 12 Sudeste 0 -- -- 87
2020-11-21 06:00:00 12.2 2 Noroeste 7 Oeste 0 -- -- 87
2020-11-21 05:00:00 12.2 3 Noroeste 12 Este 0 -- -- 84
2020-11-21 04:00:00 12.3 2 Oeste 14 Nordeste 0 -- -- 83
2020-11-21 03:00:00 12.1 2 Oeste 12 Sudoeste 0 -- -- 83
2020-11-21 02:00:00 12.4 3 Oeste 18 Oeste 0 -- -- 80
2020-11-21 01:00:00 12.5 4 Oeste 15 Norte 0 -- -- 81
2020-11-21 00:00:00 12.4 3 Oeste 9 Nordeste 0 -- -- 83
2020-11-20 23:00:00 12.3 2 Oeste 7 Este 0 -- -- 84
2020-11-20 22:00:00 12.8 7 Este 12 Este 0 -- -- 83
2020-11-20 21:00:00 12.8 0 Calma 5 Este 0 -- -- 84
2020-11-20 20:00:00 13.2 3 Nordeste 9 Este 0 -- -- 87
2020-11-20 19:00:00 13.2 4 Nordeste 12 Norte 0 -- -- 88
2020-11-20 18:00:00 15.4 3 Noroeste 11 Sudoeste 0 -- -- 79
2020-11-20 17:00:00 17.2 7 Sudoeste 15 Sudoeste 0 -- -- 74
2020-11-20 16:00:00 18.6 9 Sudoeste 19 Sudoeste 0 -- -- 70
2020-11-20 15:00:00 19 12 Sudoeste 20 Sudoeste 0 -- -- 68
2020-11-20 14:00:00 20 6 Sudoeste 14 Oeste 0 -- -- 63
2020-11-20 13:00:00 19.1 8 Sudoeste 15 Sudoeste 0 -- -- 64
2020-11-20 12:00:00 18.2 5 Sudoeste 15 Sudoeste 0 -- -- 68
2020-11-20 11:00:00 16.6 4 Sudeste 17 Este 0 -- -- 68
2020-11-20 10:00:00 14.3 6 Este 13 Este 0 -- -- 76
2020-11-20 09:00:00 13 4 Nordeste 18 Nordeste 0 -- -- 81
2020-11-20 08:00:00 12.5 5 Oeste 15 Norte 0 -- -- 84
2020-11-20 07:00:00 12.7 2 Sudoeste 20 Norte 0 -- -- 83
2020-11-20 06:00:00 12.9 5 Sudoeste 25 Nordeste 0 -- -- 83
2020-11-20 05:00:00 12.8 9 Sudoeste 22 Norte 0 -- -- 83
2020-11-20 04:00:00 13.2 5 Noroeste 19 Sudeste 0 -- -- 80
2020-11-20 03:00:00 13.3 6 Sudoeste 19 Este 0 -- -- 80
2020-11-20 02:00:00 12.9 7 Oeste 18 Oeste 0 -- -- 80
2020-11-20 01:00:00 12.9 5 Oeste 15 Sudoeste 0 -- -- 80
2020-11-20 00:00:00 12.9 8 Oeste 16 Norte 0 -- -- 83
2020-11-19 23:00:00 12.9 5 Oeste 24 Norte 0 -- -- 83
2020-11-19 22:00:00 13.2 7 Norte 24 Norte 0 -- -- 82
2020-11-19 21:00:00 13.2 4 Noroeste 15 Este 0 -- -- 81
2020-11-19 20:00:00 13.4 5 Norte 21 Norte 0 -- -- 81
2020-11-19 19:00:00 13.8 9 Oeste 29 Nordeste 0 -- -- 79
2020-11-19 18:00:00 14.6 9 Norte 34 Norte 0 -- -- 76
2020-11-19 17:00:00 17 7 Oeste 18 Sur 0 -- -- 72
2020-11-19 16:00:00 18.1 8 Sudeste 21 Oeste 0 -- -- 70
2020-11-19 15:00:00 19.4 9 Oeste 26 Oeste 0 -- -- 64
2020-11-19 14:00:00 19.8 5 Sudoeste 21 Sur 0 -- -- 64
2020-11-19 13:00:00 19.1 6 Sudoeste 26 Sudeste 0 -- -- 65
2020-11-19 12:00:00 18.1 8 Sudoeste 23 Sur 0 -- -- 68
2020-11-19 11:00:00 16.3 8 Sudoeste 21 Sudoeste 0 -- -- 77
2020-11-19 10:00:00 13.9 8 Sudoeste 19 Sudoeste 0 -- -- 85
2020-11-19 09:00:00 12.7 4 Sudoeste 14 Oeste 0 -- -- 89
2020-11-19 08:00:00 11.9 4 Sudoeste 10 Este 0 -- -- 94
2020-11-19 07:00:00 11.6 2 Oeste 5 Sudeste 0 -- -- 94
2020-11-19 06:00:00 11.6 0 Calma 5 Sudeste 0 -- -- 96
2020-11-19 05:00:00 11.1 0 Calma 5 Nordeste 0 -- -- 96
2020-11-19 04:00:00 10.7 2 Sudeste 9 Nordeste 0 -- -- 97
2020-11-19 03:00:00 11 3 Nordeste 9 Nordeste 0 -- -- 96
2020-11-19 02:00:00 11.6 4 Nordeste 9 Nordeste 0 -- -- 96
2020-11-19 01:00:00 12.4 0 Calma 5 Nordeste 0 -- -- 95
2020-11-19 00:00:00 12.4 0 Calma 6 Nordeste 0 -- -- 93
2020-11-18 23:00:00 13.2 0 Calma 6 Sudeste 0 -- -- 93
2020-11-18 22:00:00 13.6 2 Norte 6 Este 0 -- -- 93
2020-11-18 21:00:00 13.8 2 Sudoeste 4 Sudoeste 0 -- -- 94
2020-11-18 20:00:00 13.8 0 Calma 6 Noroeste 0 -- -- 93
2020-11-18 19:00:00 13.9 2 Sur 5 Sudoeste 0 -- -- 91
2020-11-18 18:00:00 15 0 Calma 14 Sudoeste 0 -- -- 89
2020-11-18 17:00:00 16.8 10 Sudoeste 17 Sudoeste 0 -- -- 82
2020-11-18 16:00:00 18.8 10 Sudoeste 16 Sudoeste 0 -- -- 75
2020-11-18 15:00:00 19.2 8 Sudoeste 17 Oeste 0 -- -- 71
2020-11-18 14:00:00 18.8 7 Sudoeste 15 Sudoeste 0.2 -- -- 72
2020-11-18 13:00:00 18.1 6 Sudoeste 18 Sudoeste 0 -- -- 74
2020-11-18 12:00:00 16.7 8 Sudoeste 15 Sudoeste 0 -- -- 81
2020-11-18 11:00:00 14.6 4 Sudoeste 9 Sudoeste 0 -- -- 98
2020-11-18 10:00:00 12.5 0 Calma 5 Sudoeste 0 -- -- 98
2020-11-18 09:00:00 12.1 2 Sudoeste 5 Sudoeste 0 -- -- 98
2020-11-18 08:00:00 11.9 3 Noroeste 7 Noroeste 0 -- -- 97
2020-11-18 07:00:00 11.9 0 Calma 9 Nordeste 0 -- -- 97
2020-11-18 06:00:00 11.1 6 Nordeste 13 Sudoeste 0 -- -- 97
2020-11-18 05:00:00 12.8 4 Sudoeste 9 Sudoeste 0 -- -- 97
2020-11-18 04:00:00 12.3 0 Calma 5 Oeste 0 -- -- 96
2020-11-18 03:00:00 11 6 Nordeste 15 Nordeste 0.2 -- -- 96
2020-11-18 02:00:00 12.6 2 Norte 8 Norte 0 -- -- 96
2020-11-18 01:00:00 12.4 0 Calma 11 Nordeste 0 -- -- 96
2020-11-18 00:00:00 12.2 3 Nordeste 12 Nordeste 0 -- -- 95
2020-11-17 23:00:00 13.3 6 Nordeste 10 Nordeste 0 -- -- 94
2020-11-17 22:00:00 14.1 3 Nordeste 6 Nordeste 0 -- -- 93
2020-11-17 21:00:00 14.9 0 Calma 4 Sur 0 -- -- 93
2020-11-17 20:00:00 15.5 0 Calma 6 Nordeste 0 -- -- 92
2020-11-17 19:00:00 16.1 0 Calma 5 Este 0 -- -- 89
2020-11-17 18:00:00 17.5 2 Sur 7 Sudoeste 0 -- -- 84
2020-11-17 17:00:00 19.3 4 Sudoeste 14 Sudoeste 0 -- -- 80
2020-11-17 16:00:00 20 6 Sudoeste 15 Sur 0 -- -- 78
2020-11-17 15:00:00 19.9 9 Sudoeste 18 Sudoeste 0 -- -- 77
2020-11-17 14:00:00 20.3 9 Sudoeste 19 Sudoeste 0 -- -- 75
2020-11-17 13:00:00 19.9 8 Sudoeste 17 Sur 0 -- -- 75
2020-11-17 12:00:00 19 10 Sudoeste 17 Sudoeste 0 -- -- 71
2020-11-17 11:00:00 18.3 5 Sudoeste 8 Sudoeste 0 -- -- 64
2020-11-17 10:00:00 15.1 0 Calma 7 Nordeste 0 -- -- 69
2020-11-17 09:00:00 13.8 4 Nordeste 12 Nordeste 0 -- -- 68
2020-11-17 08:00:00 12.6 11 Nordeste 12 Nordeste 0 -- -- 73
2020-11-17 07:00:00 14.3 2 Sudeste 15 Nordeste 0 -- -- 65
2020-11-17 06:00:00 12.6 14 Nordeste 18 Nordeste 0 -- -- 73
2020-11-17 05:00:00 14.7 8 Nordeste 15 Nordeste 0 -- -- 65
2020-11-17 04:00:00 15.7 2 Norte 13 Norte 0 -- -- 60
2020-11-17 03:00:00 13.8 12 Nordeste 16 Nordeste 0 -- -- 70
2020-11-17 02:00:00 13.4 13 Nordeste 18 Nordeste 0 -- -- 75
2020-11-17 01:00:00 13.9 12 Nordeste 14 Nordeste 0 -- -- 76
2020-11-17 00:00:00 14.1 12 Nordeste 14 Norte 0 -- -- 79
2020-11-16 23:00:00 14.6 8 Norte 13 Norte 0 -- -- 79
2020-11-16 22:00:00 15.3 8 Nordeste 17 Norte 0 -- -- 77
2020-11-16 21:00:00 16.2 10 Nordeste 20 Norte 0 -- -- 73
2020-11-16 20:00:00 16.8 8 Nordeste 22 Nordeste 0 -- -- 72
2020-11-16 19:00:00 18.8 10 Norte 23 Norte 0 -- -- 62
2020-11-16 18:00:00 19.8 9 Norte 22 Norte 0 -- -- 56
2020-11-16 17:00:00 21.3 8 Norte 21 Norte 0 -- -- 46
2020-11-16 16:00:00 22.3 6 Norte 24 Noroeste 0 -- -- 44
2020-11-16 15:00:00 22.7 10 Noroeste 30 Norte 0 -- -- 46
2020-11-16 14:00:00 23.2 8 Oeste 21 Noroeste 0 -- -- 44
2020-11-16 13:00:00 22.2 9 Noroeste 21 Noroeste 0 -- -- 47
2020-11-16 12:00:00 21.7 6 Oeste 22 Noroeste 0 -- -- 53
2020-11-16 11:00:00 20.5 7 Noroeste 20 Noroeste 0 -- -- 53
2020-11-16 10:00:00 17.9 5 Noroeste 14 Norte 0 -- -- 58
2020-11-16 09:00:00 17.9 7 Norte 14 Norte 0 -- -- 56
2020-11-16 08:00:00 17.4 9 Noroeste 17 Noroeste 0 -- -- 58
2020-11-16 07:00:00 18 7 Norte 15 Noroeste 0 -- -- 55
2020-11-16 06:00:00 19 4 Noroeste 14 Noroeste 0 -- -- 51
2020-11-16 05:00:00 19.5 6 Noroeste 20 Oeste 0 -- -- 53
2020-11-16 04:00:00 18.8 5 Noroeste 14 Noroeste 0 -- -- 51
2020-11-16 03:00:00 17.6 0 Calma 5 Nordeste 0 -- -- 62
2020-11-16 02:00:00 17 0 Calma 10 Nordeste 0 -- -- 67
2020-11-16 01:00:00 17.2 4 Nordeste 7 Este 0 -- -- 67
2020-11-16 00:00:00 17.6 4 Este 10 Este 0 -- -- 67
2020-11-15 23:00:00 16.5 6 Nordeste 11 Nordeste 0 -- -- 79
2020-11-15 22:00:00 16.4 0 Calma 4 Norte 0 -- -- 82
2020-11-15 21:00:00 16.5 0 Calma 3 Sudoeste 0 -- -- 82
2020-11-15 20:00:00 17.2 2 Sudoeste 5 Sur 0 -- -- 79
2020-11-15 19:00:00 17.7 6 Nordeste 9 Nordeste 0 -- -- 79
2020-11-15 18:00:00 19 6 Nordeste 11 Sudoeste 0 -- -- 74
2020-11-15 17:00:00 20.9 8 Sudoeste 13 Sudoeste 0 -- -- 68
2020-11-15 16:00:00 21.7 7 Sudoeste 14 Sudoeste 0 -- -- 65
2020-11-15 15:00:00 21.6 7 Sudoeste 14 Sudoeste 0 -- -- 67
2020-11-15 14:00:00 20.4 7 Sudoeste 17 Sudoeste 0 -- -- 73
2020-11-15 13:00:00 19.2 7 Sudoeste 12 Sudoeste 0.2 -- -- 77
2020-11-15 12:00:00 19 5 Sudoeste 12 Sudoeste 0 -- -- 74
2020-11-15 11:00:00 18 4 Sudoeste 7 Sudoeste 0 -- -- 79
2020-11-15 10:00:00 15.6 2 Sur 13 Nordeste 0 -- -- 86
2020-11-15 09:00:00 13.5 11 Nordeste 14 Nordeste 0 -- -- 90
2020-11-15 08:00:00 13 8 Nordeste 17 Nordeste 0 -- -- 94
2020-11-15 07:00:00 12.8 9 Nordeste 15 Nordeste 0 -- -- 95
2020-11-15 06:00:00 13 10 Nordeste 13 Nordeste 0 -- -- 94
2020-11-15 05:00:00 12.6 10 Norte 14 Norte 0 -- -- 96
2020-11-15 04:00:00 13.2 7 Nordeste 12 Nordeste 0 -- -- 96
2020-11-15 03:00:00 13.1 5 Nordeste 11 Nordeste 0 -- -- 97
2020-11-15 02:00:00 13.1 4 Nordeste 13 Nordeste 0 -- -- 97
2020-11-15 01:00:00 13.2 9 Nordeste 12 Norte 0 -- -- 96
2020-11-15 00:00:00 13.5 8 Nordeste 10 Nordeste 0 -- -- 96
2020-11-14 23:00:00 13.8 6 Norte 10 Norte 0 -- -- 95
2020-11-14 22:00:00 14.3 3 Nordeste 10 Norte 0.2 -- -- 95
2020-11-14 21:00:00 14.4 7 Nordeste 12 Norte 0 -- -- 95
2020-11-14 20:00:00 14.5 2 Norte 9 Norte 0 -- -- 95
2020-11-14 19:00:00 14.8 5 Norte 12 Sudoeste 0 -- -- 95
2020-11-14 18:00:00 15.2 5 Sudoeste 11 Sur 0 -- -- 95
2020-11-14 17:00:00 15.7 5 Sudoeste 10 Sudoeste 0 -- -- 94
2020-11-14 16:00:00 15.8 6 Sudoeste 12 Sudoeste 0 -- -- 96
2020-11-14 15:00:00 15.2 4 Sur 12 Sur 0 -- -- 96
2020-11-14 14:00:00 15 6 Sudoeste 14 Sur 0.2 -- -- 96
2020-11-14 13:00:00 14.1 6 Sudoeste 15 Sudoeste 0.6 -- -- 96
2020-11-14 12:00:00 14.2 6 Sudoeste 14 Sur 0 -- -- 96
2020-11-14 11:00:00 14.2 8 Sudoeste 14 Sudoeste 0 -- -- 96
2020-11-14 10:00:00 13.9 6 Sudoeste 13 Sudoeste 1 -- -- 95
2020-11-14 09:00:00 14 8 Sudoeste 12 Sudoeste 0.2 -- -- 94
2020-11-14 08:00:00 13.9 6 Sudoeste 10 Sudoeste 0 -- -- 93
2020-11-14 07:00:00 13.8 3 Sudoeste 10 Sur 0 -- -- 93
2020-11-14 06:00:00 13.8 3 Sur 9 Sudoeste 0 -- -- 92
2020-11-14 05:00:00 13.8 5 Sudoeste 9 Sudoeste 0 -- -- 91
2020-11-14 04:00:00 13.7 0 Calma 4 Sur 0 -- -- 91
2020-11-14 03:00:00 13.5 0 Calma 4 Sudeste 0 -- -- 92
2020-11-14 02:00:00 13.4 3 Sudoeste 8 Este 0 -- -- 93
2020-11-14 01:00:00 13.4 2 Este 10 Sudeste 0 -- -- 95
2020-11-14 00:00:00 13.6 6 Sudoeste 11 Sudoeste 0 -- -- 95
2020-11-13 23:00:00 13.7 4 Sudoeste 8 Sur 0 -- -- 94
2020-11-13 22:00:00 13.8 5 Nordeste 8 Nordeste 0 -- -- 94
2020-11-13 21:00:00 14 0 Calma 5 Sudoeste 0 -- -- 94
2020-11-13 20:00:00 14.2 0 Calma 6 Norte 0 -- -- 93
2020-11-13 19:00:00 14.6 3 Norte 4 Norte 0 -- -- 91
2020-11-13 18:00:00 15.1 0 Calma 6 Sudoeste 0 -- -- 90
2020-11-13 17:00:00 15.3 2 Este 12 Sudoeste 0 -- -- 87
2020-11-13 16:00:00 15.9 5 Sudoeste 10 Sudoeste 0 -- -- 83
2020-11-13 15:00:00 16.2 3 Este 13 Sudoeste 0 -- -- 83
2020-11-13 14:00:00 16.8 4 Sur 13 Sudoeste 0 -- -- 78
2020-11-13 13:00:00 16.9 9 Sudoeste 20 Sur 0 -- -- 78
2020-11-13 12:00:00 17 7 Sudoeste 15 Sudoeste 0 -- -- 75
2020-11-13 11:00:00 16 6 Sudoeste 12 Oeste 0 -- -- 80
2020-11-13 10:00:00 14.5 3 Sudoeste 8 Sudoeste 0 -- -- 85
2020-11-13 09:00:00 13.2 0 Calma 7 Este 0 -- -- 88
2020-11-13 08:00:00 12.6 2 Sur 5 Sudoeste 0 -- -- 88
2020-11-13 07:00:00 12.9 3 Este 5 Este 0 -- -- 88
2020-11-13 06:00:00 12.9 0 Calma 7 Este 0 -- -- 86
2020-11-13 05:00:00 13 2 Sudeste 8 Sudeste 0 -- -- 88
2020-11-13 04:00:00 12.8 0 Calma 9 Este 0 -- -- 86
2020-11-13 03:00:00 12.9 3 Este 9 Sudeste 0 -- -- 87
2020-11-13 02:00:00 13 5 Nordeste 9 Este 0 -- -- 84
2020-11-13 01:00:00 13.2 3 Este 11 Nordeste 0 -- -- 83
2020-11-13 00:00:00 13.6 4 Nordeste 12 Este 0 -- -- 83
2020-11-12 23:00:00 13.7 3 Este 8 Este 0 -- -- 85
2020-11-12 22:00:00 13.5 4 Este 8 Norte 0 -- -- 85
2020-11-12 21:00:00 13.2 2 Norte 8 Nordeste 0 -- -- 85
2020-11-12 20:00:00 13.2 0 Calma 6 Sudeste 0 -- -- 84
2020-11-12 19:00:00 13.6 2 Sudoeste 7 Sudeste 0 -- -- 82
2020-11-12 18:00:00 14.8 2 Noroeste 8 Sudoeste 0 -- -- 78
2020-11-12 17:00:00 15.6 4 Oeste 9 Nordeste 0 -- -- 75
2020-11-12 16:00:00 15.9 5 Sudoeste 15 Sudoeste 0 -- -- 76
2020-11-12 15:00:00 17.6 6 Sudoeste 21 Sudoeste 0 -- -- 69
2020-11-12 14:00:00 17.2 9 Sudoeste 21 Sudoeste 0 -- -- 74
2020-11-12 13:00:00 16.5 6 Sudoeste 18 Sudoeste 0 -- -- 73
2020-11-12 12:00:00 16.8 7 Sudoeste 21 Sur 0 -- -- 74
2020-11-12 11:00:00 15.8 4 Sur 13 Nordeste 0 -- -- 73
2020-11-12 10:00:00 13.9 3 Oeste 11 Oeste 0 -- -- 76
2020-11-12 09:00:00 12.5 4 Oeste 11 Oeste 0 -- -- 80
2020-11-12 08:00:00 12 3 Oeste 10 Norte 0 -- -- 81
2020-11-12 07:00:00 12.3 3 Noroeste 14 Norte 0 -- -- 78
2020-11-12 06:00:00 12.3 3 Oeste 13 Norte 0 -- -- 79
2020-11-12 05:00:00 12.3 5 Oeste 15 Noroeste 0 -- -- 81
2020-11-12 04:00:00 12.2 4 Oeste 12 Sudoeste 0 -- -- 83
2020-11-12 03:00:00 12.6 4 Noroeste 13 Nordeste 0 -- -- 81
2020-11-12 02:00:00 12.6 3 Sudoeste 13 Oeste 0 -- -- 80
2020-11-12 01:00:00 12.6 3 Oeste 16 Sudoeste 0 -- -- 80
2020-11-12 00:00:00 12.8 5 Oeste 16 Norte 0 -- -- 78
2020-11-11 23:00:00 12.7 5 Oeste 13 Nordeste 0 -- -- 79
2020-11-11 22:00:00 12.7 5 Sudoeste 14 Noroeste 0 -- -- 79
2020-11-11 21:00:00 12.8 4 Sudoeste 12 Oeste 0 -- -- 83
2020-11-11 20:00:00 13 4 Sudoeste 14 Sur 0 -- -- 82
2020-11-11 19:00:00 13.3 5 Sudoeste 17 Noroeste 0 -- -- 81
2020-11-11 18:00:00 14 6 Oeste 16 Oeste 0 -- -- 79
2020-11-11 17:00:00 14.8 8 Oeste 18 Oeste 0 -- -- 74
2020-11-11 16:00:00 15.8 4 Sudeste 17 Sur 0 -- -- 70
2020-11-11 15:00:00 16.2 5 Oeste 16 Oeste 0 -- -- 71
2020-11-11 14:00:00 15.7 4 Sudoeste 18 Sudoeste 0 -- -- 70
2020-11-11 13:00:00 16 8 Sudoeste 22 Sudeste 0 -- -- 72
2020-11-11 12:00:00 16.1 5 Sudoeste 16 Sudeste 0 -- -- 71
2020-11-11 11:00:00 15.1 5 Sur 18 Este 0 -- -- 75
2020-11-11 10:00:00 14.1 6 Sur 22 Sudeste 0 -- -- 79
2020-11-11 09:00:00 13.3 5 Oeste 17 Este 0 -- -- 82
2020-11-11 08:00:00 12.7 5 Sudoeste 19 Sur 0 -- -- 80
2020-11-11 07:00:00 12.4 5 Sudoeste 19 Nordeste 0 -- -- 81
2020-11-11 06:00:00 12.5 6 Oeste 22 Norte 0 -- -- 80
2020-11-11 05:00:00 12.6 5 Oeste 22 Sudeste 0 -- -- 78
2020-11-11 04:00:00 12.8 7 Norte 30 Este 0 -- -- 78
2020-11-11 03:00:00 12.8 8 Sudoeste 19 Sudoeste 0 -- -- 78
2020-11-11 02:00:00 12.7 3 Oeste 15 Este 0 -- -- 81
2020-11-11 01:00:00 13.1 4 Oeste 10 Este 0 -- -- 78
2020-11-11 00:00:00 13.2 0 Calma 11 Oeste 0 -- -- 74
2020-11-10 23:00:00 13.3 5 Oeste 14 Sur 0 -- -- 72
2020-11-10 22:00:00 13.8 5 Oeste 16 Sudoeste 0 -- -- 67
2020-11-10 21:00:00 13.7 5 Oeste 11 Este 0 -- -- 72
2020-11-10 20:00:00 14 4 Oeste 9 Oeste 0 -- -- 72
2020-11-10 19:00:00 14.8 3 Oeste 21 Norte 0 -- -- 74
2020-11-10 18:00:00 17 3 Sudoeste 8 Nordeste 0 -- -- 72
2020-11-10 17:00:00 18.5 5 Sudoeste 15 Sudoeste 0 -- -- 72
2020-11-10 16:00:00 18.7 10 Sudoeste 22 Sudoeste 0 -- -- 68
2020-11-10 15:00:00 19.1 12 Sudoeste 22 Oeste 0 -- -- 63
2020-11-10 14:00:00 19 13 Sudoeste 23 Oeste 0 -- -- 63
2020-11-10 13:00:00 18.7 6 Oeste 15 Sudoeste 0 -- -- 60
2020-11-10 12:00:00 17.9 6 Sudoeste 14 Sudoeste 0 -- -- 62
2020-11-10 11:00:00 15.9 3 Sudeste 12 Nordeste 0 -- -- 67
2020-11-10 10:00:00 12.3 8 Nordeste 15 Nordeste 0 -- -- 74
2020-11-10 09:00:00 10.4 13 Nordeste 15 Nordeste 0 -- -- 81
2020-11-10 08:00:00 10.1 11 Nordeste 17 Norte 0 -- -- 83
2020-11-10 07:00:00 9.7 11 Norte 18 Norte 0 -- -- 85
2020-11-10 06:00:00 9.6 11 Nordeste 17 Norte 0 -- -- 85
2020-11-10 05:00:00 9.8 12 Norte 17 Norte 0 -- -- 85
2020-11-10 04:00:00 10.2 10 Norte 16 Norte 0 -- -- 83
2020-11-10 03:00:00 10.4 12 Norte 15 Norte 0 -- -- 84
2020-11-10 02:00:00 10.2 9 Norte 19 Norte 0 -- -- 87
2020-11-10 01:00:00 10.4 10 Norte 16 Norte 0 -- -- 90
2020-11-10 00:00:00 10.8 9 Norte 16 Norte 0 -- -- 88
2020-11-09 23:00:00 11.6 8 Norte 16 Norte 0 -- -- 86
2020-11-09 22:00:00 -- -- -- -- -- -- -- -- --
2020-11-09 21:00:00 12.6 9 Norte 15 Norte 0 -- -- 83
2020-11-09 20:00:00 13.1 8 Norte 15 Norte 0 -- -- 81
2020-11-09 19:00:00 14.5 11 Norte 19 Norte 0 -- -- 74
2020-11-09 18:00:00 16.2 5 Norte 17 Norte 0 -- -- 69
2020-11-09 17:00:00 18.3 5 Oeste 15 Norte 0 -- -- 57
2020-11-09 16:00:00 18.2 6 Norte 13 Norte 0 -- -- 62
2020-11-09 15:00:00 17.9 4 Norte 16 Nordeste 0 -- -- 64
2020-11-09 14:00:00 16.8 4 Este 13 Sudoeste 0 -- -- 72
2020-11-09 13:00:00 16.7 6 Sudoeste 12 Sudoeste 0 -- -- 78
2020-11-09 12:00:00 14.8 6 Nordeste 9 Norte 0.2 -- -- 83
2020-11-09 11:00:00 13.3 5 Norte 9 Nordeste 0 -- -- 90
2020-11-09 10:00:00 13.3 6 Nordeste 10 Nordeste 0 -- -- 84
2020-11-09 09:00:00 12.9 4 Nordeste 10 Nordeste 0 -- -- 81
2020-11-09 08:00:00 12.3 3 Sur 6 Nordeste 0 -- -- 84
2020-11-09 07:00:00 12.2 0 Calma 4 Norte 0 -- -- 82
2020-11-09 06:00:00 12.1 3 Norte 5 Nordeste 0 -- -- 81
2020-11-09 05:00:00 12.4 0 Calma 4 Este 0 -- -- 80
2020-11-09 04:00:00 12.6 3 Este 7 Nordeste 0 -- -- 79
2020-11-09 03:00:00 12.3 3 Nordeste 9 Nordeste 0 -- -- 81
2020-11-09 02:00:00 11.8 7 Nordeste 10 Norte 0 -- -- 83
2020-11-09 01:00:00 12.7 3 Este 5 Nordeste 0 -- -- 79
2020-11-09 00:00:00 12.6 4 Nordeste 8 Nordeste 0 -- -- 80
2020-11-08 23:00:00 12.7 5 Nordeste 7 Nordeste 0 -- -- 79
2020-11-08 22:00:00 13.3 0 Calma 5 Sudoeste 0 -- -- 75
2020-11-08 21:00:00 13.1 3 Sudoeste 7 Sudoeste 0 -- -- 77
2020-11-08 20:00:00 13.5 5 Sudoeste 10 Sudoeste 0 -- -- 75
2020-11-08 19:00:00 14.4 8 Oeste 12 Sudoeste 0 -- -- 72
2020-11-08 18:00:00 16.4 7 Sudoeste 13 Sudoeste 0 -- -- 68
2020-11-08 17:00:00 18.3 7 Sudoeste 15 Sudoeste 0 -- -- 64
2020-11-08 16:00:00 18.6 9 Sudoeste 18 Sudoeste 0 -- -- 63
2020-11-08 15:00:00 18.2 13 Sudoeste 27 Sudoeste 0 -- -- 64
2020-11-08 14:00:00 18.3 14 Sudoeste 28 Sudoeste 0 -- -- 64
2020-11-08 13:00:00 18 11 Sudoeste 23 Sudoeste 0 -- -- 68
2020-11-08 12:00:00 17.4 11 Sudoeste 17 Sudoeste 0 -- -- 70
2020-11-08 11:00:00 15.4 7 Sudoeste 10 Sudoeste 0 -- -- 76
2020-11-08 10:00:00 14.8 4 Sudoeste 10 Sudoeste 0 -- -- 78
2020-11-08 09:00:00 12.7 2 Nordeste 6 Sudeste 0 -- -- 86
2020-11-08 08:00:00 12.9 2 Sur 6 Este 0 -- -- 83
2020-11-08 07:00:00 12.8 5 Este 6 Nordeste 0 -- -- 83
2020-11-08 06:00:00 12.4 0 Calma 4 Sudeste 0 -- -- 84
2020-11-08 05:00:00 12.6 0 Calma 4 Este 0 -- -- 84
2020-11-08 04:00:00 12.4 3 Nordeste 5 Nordeste 0 -- -- 84
2020-11-08 03:00:00 12.7 0 Calma 3 Sudeste 0 -- -- 83
2020-11-08 02:00:00 12.8 0 Calma 5 Sudoeste 0 -- -- 79
2020-11-08 01:00:00 13.3 0 Calma 8 Sur 0 -- -- 77
2020-11-08 00:00:00 13.7 3 Este 10 Este 0 -- -- 77
2020-11-07 23:00:00 12.4 8 Nordeste 12 Nordeste 0 -- -- 83
2020-11-07 22:00:00 12.5 9 Nordeste 11 Nordeste 0 -- -- 84
2020-11-07 21:00:00 13.3 2 Nordeste 6 Este 0 -- -- 82
2020-11-07 20:00:00 13.8 5 Este 10 Sur 0 -- -- 79
2020-11-07 19:00:00 14.5 4 Sudoeste 15 Sudoeste 0 -- -- 76
2020-11-07 18:00:00 16.2 6 Sudoeste 21 Sur 0 -- -- 66
2020-11-07 17:00:00 17.8 12 Sudoeste 22 Sudoeste 0 -- -- 64
2020-11-07 16:00:00 18.3 14 Sudoeste 24 Sudoeste 0 -- -- 64
2020-11-07 15:00:00 16.9 14 Sudoeste 37 Nordeste 0 -- -- 66
2020-11-07 14:00:00 17.5 14 Oeste 28 Oeste 0 -- -- 65
2020-11-07 13:00:00 16.6 16 Sudoeste 33 Sudoeste 0 -- -- 68
2020-11-07 12:00:00 15.6 14 Sudoeste 31 Sudoeste 0 -- -- 75
2020-11-07 11:00:00 14.7 17 Sudoeste 33 Sudoeste 0 -- -- 80
2020-11-07 10:00:00 13.6 13 Oeste 35 Sudoeste 0.2 -- -- 82
2020-11-07 09:00:00 12.9 15 Oeste 35 Oeste 0 -- -- 89
2020-11-07 08:00:00 12.8 8 Sudoeste 32 Sudoeste 0.4 -- -- 91
2020-11-07 07:00:00 12.9 20 Sudoeste 36 Sur 0 -- -- 93
2020-11-07 06:00:00 12.7 13 Sur 27 Sudoeste 0 -- -- 95
2020-11-07 05:00:00 12.7 12 Sudoeste 35 Sudoeste 1.2 -- -- 95
2020-11-07 04:00:00 13 15 Sudoeste 26 Sudoeste 0.8 -- -- 92
2020-11-07 03:00:00 13.5 18 Sudoeste 28 Sudoeste 0.2 -- -- 88
2020-11-07 02:00:00 13.4 11 Sudoeste 21 Sudoeste 0 -- -- 87
2020-11-07 01:00:00 13.9 13 Sudoeste 28 Sur 0.4 -- -- 83
2020-11-07 00:00:00 14.6 14 Sudoeste 30 Sudoeste 0 -- -- 75
2020-11-06 23:00:00 14.2 5 Sudoeste 13 Sudoeste 0 -- -- 76
2020-11-06 22:00:00 14.7 9 Este 21 Este 0.4 -- -- 75
2020-11-06 21:00:00 15.9 14 Sudoeste 30 Oeste 0.2 -- -- 69
2020-11-06 20:00:00 16.4 9 Este 12 Este 0 -- -- 71
2020-11-06 19:00:00 17.2 5 Norte 17 Sudoeste 0 -- -- 63
2020-11-06 18:00:00 18.3 4 Nordeste 14 Nordeste 0 -- -- 57
2020-11-06 17:00:00 18.9 5 Nordeste 9 Norte 0 -- -- 59
2020-11-06 16:00:00 20 4 Nordeste 18 Sudoeste 0 -- -- 51
2020-11-06 15:00:00 21.5 3 Sudoeste 22 Nordeste 0 -- -- 46
2020-11-06 14:00:00 21.5 7 Nordeste 25 Noroeste 0 -- -- 46
2020-11-06 13:00:00 21.1 8 Norte 26 Norte 0 -- -- 49
2020-11-06 12:00:00 19.8 10 Norte 36 Norte 0 -- -- 50
2020-11-06 11:00:00 20.2 7 Norte 40 Norte 0 -- -- 50
2020-11-06 10:00:00 18.8 11 Norte 28 Norte 0 -- -- 54
2020-11-06 09:00:00 17.9 8 Oeste 27 Oeste 0 -- -- 57
2020-11-06 08:00:00 17.4 8 Oeste 23 Noroeste 0 -- -- 59
2020-11-06 07:00:00 17.5 10 Oeste 33 Oeste 0 -- -- 59
2020-11-06 06:00:00 17.7 8 Norte 29 Norte 0 -- -- 57
2020-11-06 05:00:00 17.1 5 Oeste 14 Sur 0 -- -- 58
2020-11-06 04:00:00 17.9 7 Sudeste 44 Este 0 -- -- 53
2020-11-06 03:00:00 16.7 6 Oeste 18 Oeste 0 -- -- 58
2020-11-06 02:00:00 15.7 6 Oeste 23 Sur 0 -- -- 65
2020-11-06 01:00:00 15.4 9 Sudoeste 18 Sudoeste 0 -- -- 71
2020-11-06 00:00:00 15.9 4 Sudeste 21 Oeste 0 -- -- 68
2020-11-05 23:00:00 16.4 6 Sudeste 24 Sudeste 0 -- -- 63
2020-11-05 22:00:00 16.2 8 Oeste 23 Oeste 0 -- -- 64
2020-11-05 21:00:00 15.7 6 Sudoeste 18 Oeste 0 -- -- 65
2020-11-05 20:00:00 15.8 7 Este 17 Este 0 -- -- 65
2020-11-05 19:00:00 15.7 12 Oeste 24 Oeste 0 -- -- 71
2020-11-05 18:00:00 16.1 5 Oeste 22 Oeste 0 -- -- 76
2020-11-05 17:00:00 17 7 Oeste 22 Sur 0 -- -- 74
2020-11-05 16:00:00 17.1 5 Sudoeste 15 Oeste 0 -- -- 75
2020-11-05 15:00:00 18.2 7 Sudoeste 22 Sudoeste 0 -- -- 78
2020-11-05 14:00:00 17.7 11 Sudoeste 26 Sudoeste 0 -- -- 82
2020-11-05 13:00:00 15.3 11 Sudoeste 33 Sudoeste 0 -- -- 89
2020-11-05 12:00:00 15.3 13 Sudoeste 36 Sudoeste 0 -- -- 92
2020-11-05 11:00:00 14.3 15 Sudoeste 33 Sudoeste 0 -- -- 98
2020-11-05 10:00:00 13.5 22 Sudoeste 51 Sudoeste 2.2 -- -- 97
2020-11-05 09:00:00 13.6 26 Sudoeste 57 Sudoeste 15 -- -- 96
2020-11-05 08:00:00 13.5 19 Sudoeste 45 Sudoeste 7.8 -- -- 95
2020-11-05 07:00:00 12.5 15 Sudoeste 48 Sudoeste 4.4 -- -- 96
2020-11-05 06:00:00 13.5 27 Sudoeste 54 Sudoeste 5.6 -- -- 95
2020-11-05 05:00:00 13.5 28 Sudoeste 63 Sudoeste 0 -- -- 91
2020-11-05 04:00:00 12.9 14 Sudoeste 36 Sudoeste 0.8 -- -- 95
2020-11-05 03:00:00 12.5 14 Sudoeste 34 Oeste 0.4 -- -- 94
2020-11-05 02:00:00 11.9 10 Sudoeste 38 Sudoeste 0 -- -- 95
2020-11-05 01:00:00 12.4 14 Sudoeste 55 Sudoeste 2.2 -- -- 96
2020-11-05 00:00:00 12.7 28 Sudoeste 63 Sudoeste 15.2 -- -- 95
2020-11-04 23:00:00 13.4 4 Noroeste 24 Este 1.4 -- -- 90
2020-11-04 22:00:00 13.5 7 Oeste 18 Sudoeste 0 -- -- 85
2020-11-04 21:00:00 13.2 9 Sur 22 Sur 0 -- -- 84
2020-11-04 20:00:00 12.6 4 Sudoeste 11 Sur 0 -- -- 87
2020-11-04 19:00:00 12.6 3 Oeste 13 Sudoeste 0 -- -- 88
2020-11-04 18:00:00 13.4 3 Sudoeste 8 Sudeste 0 -- -- 91
2020-11-04 17:00:00 13.7 2 Sudoeste 9 Sudeste 0.2 -- -- 91
2020-11-04 16:00:00 13.7 4 Norte 10 Sudeste 0.4 -- -- 91
2020-11-04 15:00:00 13.2 4 Este 22 Sudoeste 0.6 -- -- 92
2020-11-04 14:00:00 14.2 12 Sudoeste 21 Sudoeste 0 -- -- 85
2020-11-04 13:00:00 15.1 4 Sudoeste 15 Oeste 0 -- -- 77
2020-11-04 12:00:00 15.2 9 Sudoeste 15 Sudoeste 0 -- -- 77
2020-11-04 11:00:00 14.9 4 Sudoeste 11 Sudoeste 0.2 -- -- 79
2020-11-04 10:00:00 13.9 4 Sudoeste 9 Sudoeste 0.2 -- -- 84
2020-11-04 09:00:00 12.7 2 Sudoeste 9 Nordeste 0 -- -- 85
2020-11-04 08:00:00 12.3 2 Nordeste 9 Este 0 -- -- 87
2020-11-04 07:00:00 12.3 2 Nordeste 8 Sudeste 0 -- -- 86
2020-11-04 06:00:00 12.1 3 Sudoeste 8 Noroeste 0 -- -- 89
2020-11-04 05:00:00 12 3 Oeste 8 Oeste 0 -- -- 92
2020-11-04 04:00:00 12.1 0 Calma 5 Oeste 0 -- -- 93
2020-11-04 03:00:00 12.4 0 Calma 4 Sur 0 -- -- 93
2020-11-04 02:00:00 12.4 2 Nordeste 6 Sudoeste 0 -- -- 92
2020-11-04 01:00:00 12.6 0 Calma 4 Norte 0 -- -- 91
2020-11-04 00:00:00 13 2 Sur 7 Nordeste 0 -- -- 90
2020-11-03 23:00:00 13.5 2 Nordeste 5 Nordeste 0 -- -- 89
2020-11-03 22:00:00 14.2 3 Sur 5 Sur 0 -- -- 87
2020-11-03 21:00:00 14.6 0 Calma 4 Nordeste 0 -- -- 83
2020-11-03 20:00:00 15.8 3 Nordeste 6 Nordeste 0 -- -- 78
2020-11-03 19:00:00 16 2 Nordeste 3 Nordeste 0 -- -- 77
2020-11-03 18:00:00 17.1 0 Calma 6 Sudoeste 0 -- -- 73
2020-11-03 17:00:00 18.2 2 Sudoeste 10 Sudoeste 0 -- -- 70
2020-11-03 16:00:00 19.8 5 Sudoeste 12 Sudoeste 0 -- -- 65
2020-11-03 15:00:00 20.3 5 Sudoeste 14 Sudoeste 0 -- -- 60
2020-11-03 14:00:00 20.2 8 Sudoeste 14 Sudoeste 0 -- -- 61
2020-11-03 13:00:00 19.9 7 Sudoeste 12 Sudoeste 0 -- -- 63
2020-11-03 12:00:00 20.6 6 Sudoeste 9 Sudoeste 0 -- -- 60
2020-11-03 11:00:00 19.2 4 Nordeste 10 Nordeste 0 -- -- 54
2020-11-03 10:00:00 16.7 4 Nordeste 11 Nordeste 0 -- -- 58
2020-11-03 09:00:00 14.7 0 Calma 15 Nordeste 0 -- -- 63
2020-11-03 08:00:00 13.2 8 Nordeste 14 Nordeste 0 -- -- 68
2020-11-03 07:00:00 13.4 9 Nordeste 17 Nordeste 0 -- -- 69
2020-11-03 06:00:00 12.6 15 Nordeste 19 Nordeste 0 -- -- 73
2020-11-03 05:00:00 12.7 15 Nordeste 17 Nordeste 0 -- -- 73
2020-11-03 04:00:00 13.9 12 Nordeste 14 Nordeste 0 -- -- 69
2020-11-03 03:00:00 14.8 6 Nordeste 15 Nordeste 0 -- -- 67
2020-11-03 02:00:00 15.9 6 Este 11 Nordeste 0 -- -- 65
2020-11-03 01:00:00 16.1 0 Calma 12 Nordeste 0 -- -- 63
2020-11-03 00:00:00 15.9 8 Nordeste 16 Norte 0 -- -- 67
2020-11-02 23:00:00 16.1 10 Nordeste 13 Norte 0 -- -- 74
2020-11-02 22:00:00 16.9 2 Nordeste 12 Nordeste 0 -- -- 70
2020-11-02 21:00:00 17.1 11 Nordeste 12 Nordeste 0 -- -- 68
2020-11-02 20:00:00 17.3 9 Nordeste 11 Nordeste 0 -- -- 67
2020-11-02 19:00:00 17.5 5 Nordeste 8 Nordeste 0 -- -- 76
2020-11-02 18:00:00 19.4 3 Sudoeste 10 Sudoeste 0 -- -- 71
2020-11-02 17:00:00 21.4 5 Sudoeste 11 Sudoeste 0 -- -- 65
2020-11-02 16:00:00 21.8 7 Sudoeste 14 Sudoeste 0 -- -- 64
2020-11-02 15:00:00 22.1 8 Sudoeste 15 Sudoeste 0 -- -- 63
2020-11-02 14:00:00 21.6 8 Sudoeste 15 Sudoeste 0 -- -- 61
2020-11-02 13:00:00 20.4 7 Sudoeste 13 Sudoeste 0 -- -- 67
2020-11-02 12:00:00 18.7 5 Sudoeste 11 Sudoeste 0 -- -- 70
2020-11-02 11:00:00 18.6 5 Sudoeste 7 Sudoeste 0 -- -- 63
2020-11-02 10:00:00 17.7 0 Calma 9 Nordeste 0 -- -- 60
2020-11-02 09:00:00 15.6 4 Nordeste 13 Nordeste 0 -- -- 52
2020-11-02 08:00:00 14.8 5 Nordeste 14 Nordeste 0 -- -- 54
2020-11-02 07:00:00 14.6 8 Nordeste 13 Nordeste 0 -- -- 60
2020-11-02 06:00:00 15 4 Nordeste 8 Nordeste 0 -- -- 60
2020-11-02 05:00:00 14.8 4 Nordeste 15 Nordeste 0 -- -- 62
2020-11-02 04:00:00 15.5 3 Nordeste 10 Nordeste 0 -- -- 57
2020-11-02 03:00:00 15 4 Nordeste 8 Nordeste 0 -- -- 66
2020-11-02 02:00:00 14.7 4 Nordeste 13 Nordeste 0 -- -- 69
2020-11-02 01:00:00 15.6 0 Calma 10 Nordeste 0 -- -- 69
2020-11-02 00:00:00 16 9 Nordeste 12 Norte 0 -- -- 69
2020-11-01 23:00:00 16.4 9 Nordeste 11 Nordeste 0 -- -- 66
2020-11-01 22:00:00 17.2 5 Nordeste 9 Nordeste 0 -- -- 62
2020-11-01 21:00:00 18.1 6 Nordeste 11 Nordeste 0 -- -- 61
2020-11-01 20:00:00 17.2 9 Norte 15 Norte 0 -- -- 66
2020-11-01 19:00:00 17.8 9 Nordeste 11 Norte 0 -- -- 65
2020-11-01 18:00:00 19.9 0 Calma 8 Sudoeste 0 -- -- 59
2020-11-01 17:00:00 22.1 6 Sudoeste 13 Sudoeste 0 -- -- 51
2020-11-01 16:00:00 22.7 9 Sudoeste 18 Sudoeste 0 -- -- 49
2020-11-01 15:00:00 22.6 10 Sudoeste 18 Sudoeste 0 -- -- 52
2020-11-01 14:00:00 22.8 10 Sudoeste 18 Sudoeste 0 -- -- 52
2020-11-01 13:00:00 22.4 6 Sudoeste 14 Sudoeste 0 -- -- 53
2020-11-01 12:00:00 22 5 Sudoeste 11 Sudoeste 0 -- -- 52
2020-11-01 11:00:00 21.2 2 Sudoeste 6 Sudoeste 0 -- -- 54
2020-11-01 10:00:00 17.5 0 Calma 10 Nordeste 0 -- -- 59
2020-11-01 09:00:00 15.3 4 Este 12 Nordeste 0 -- -- 62
2020-11-01 08:00:00 13.4 13 Nordeste 17 Nordeste 0 -- -- 70
2020-11-01 07:00:00 13.5 14 Nordeste 18 Nordeste 0 -- -- 71
2020-11-01 06:00:00 14.2 14 Nordeste 17 Nordeste 0 -- -- 69
2020-11-01 05:00:00 12.9 13 Nordeste 17 Nordeste 0 -- -- 76
2020-11-01 04:00:00 13.7 13 Nordeste 16 Nordeste 0 -- -- 74
2020-11-01 03:00:00 14.7 12 Nordeste 15 Nordeste 0 -- -- 71
2020-11-01 02:00:00 15 11 Nordeste 14 Nordeste 0 -- -- 71
2020-11-01 01:00:00 14.7 9 Nordeste 14 Norte 0 -- -- 73
2020-11-01 00:00:00 14.9 9 Nordeste 15 Norte 0 -- -- 72
2020-10-31 23:00:00 15.3 11 Nordeste 14 Norte 0 -- -- 70
2020-10-31 22:00:00 16 7 Nordeste 10 Norte 0 -- -- 67
2020-10-31 21:00:00 16.4 6 Nordeste 10 Norte 0 -- -- 65
2020-10-31 20:00:00 17.5 5 Nordeste 7 Nordeste 0 -- -- 62
2020-10-31 19:00:00 17.9 4 Nordeste 6 Norte 0 -- -- 60
2020-10-31 18:00:00 20.3 2 Oeste 10 Sudoeste 0 -- -- 55
2020-10-31 17:00:00 22.2 6 Sudoeste 15 Sudoeste 0 -- -- 52
2020-10-31 16:00:00 22.7 8 Sudoeste 19 Sudoeste 0 -- -- 52
2020-10-31 15:00:00 22.7 10 Sudoeste 18 Sudoeste 0 -- -- 52
2020-10-31 14:00:00 22.1 9 Sudoeste 17 Sudoeste 0 -- -- 55
2020-10-31 13:00:00 21.5 8 Sudoeste 14 Sudoeste 0 -- -- 55
2020-10-31 12:00:00 20.6 5 Sudoeste 9 Oeste 0 -- -- 54
2020-10-31 11:00:00 19.4 4 Sudoeste 8 Sudoeste 0 -- -- 56
2020-10-31 10:00:00 15.5 3 Nordeste 15 Nordeste 0 -- -- 63
2020-10-31 09:00:00 12 11 Nordeste 17 Nordeste 0 -- -- 73
2020-10-31 08:00:00 12.9 9 Nordeste 14 Nordeste 0 -- -- 72
2020-10-31 07:00:00 12 10 Norte 15 Norte 0 -- -- 74
2020-10-31 06:00:00 12.9 0 Calma 5 Sudoeste 0 -- -- 73
2020-10-31 05:00:00 15.2 0 Calma 6 Oeste 0 -- -- 54
2020-10-31 04:00:00 15.3 2 Norte 8 Norte 0 -- -- 54
2020-10-31 03:00:00 15.3 2 Oeste 9 Norte 0 -- -- 56
2020-10-31 02:00:00 15.3 3 Este 6 Este 0 -- -- 55
2020-10-31 01:00:00 15.2 2 Sudoeste 9 Nordeste 0 -- -- 56
2020-10-31 00:00:00 14.7 4 Oeste 9 Oeste 0 -- -- 60
2020-10-30 23:00:00 14.1 2 Este 9 Nordeste 0 -- -- 67
2020-10-30 22:00:00 14 3 Sur 11 Nordeste 0 -- -- 73
2020-10-30 21:00:00 14.3 3 Sudoeste 6 Nordeste 0 -- -- 72
2020-10-30 20:00:00 14.9 0 Calma 8 Nordeste 0 -- -- 70
2020-10-30 19:00:00 15.4 6 Nordeste 10 Nordeste 0 -- -- 69
2020-10-30 18:00:00 17 6 Norte 11 Norte 0 -- -- 63
2020-10-30 17:00:00 18.3 3 Sudoeste 16 Oeste 0 -- -- 58
2020-10-30 16:00:00 20 12 Sudoeste 21 Sudoeste 0 -- -- 52
2020-10-30 15:00:00 21 10 Sudoeste 24 Sudoeste 0 -- -- 48
2020-10-30 14:00:00 21.6 8 Sudoeste 21 Sudoeste 0 -- -- 46
2020-10-30 13:00:00 21.5 6 Sudoeste 18 Este 0 -- -- 42
2020-10-30 12:00:00 21.3 8 Sudoeste 16 Sudeste 0 -- -- 40
2020-10-30 11:00:00 19.6 5 Sudoeste 15 Sudoeste 0 -- -- 44
2020-10-30 10:00:00 18.1 3 Sur 13 Sur 0 -- -- 45
2020-10-30 09:00:00 15.2 3 Noroeste 15 Sudeste 0 -- -- 49
2020-10-30 08:00:00 14.5 3 Noroeste 10 Norte 0 -- -- 52
2020-10-30 07:00:00 14.8 2 Sudoeste 8 Noroeste 0 -- -- 55
2020-10-30 06:00:00 15.6 4 Oeste 17 Sudeste 0 -- -- 51
2020-10-30 05:00:00 15.2 4 Oeste 11 Oeste 0 -- -- 54
2020-10-30 04:00:00 15.3 5 Sudoeste 11 Nordeste 0 -- -- 60
2020-10-30 03:00:00 15.4 3 Oeste 15 Sudoeste 0 -- -- 60
2020-10-30 02:00:00 15.7 3 Norte 14 Este 0 -- -- 61
2020-10-30 01:00:00 15.5 3 Sur 10 Sur 0 -- -- 63
2020-10-30 00:00:00 15.8 3 Sur 9 Sur 0 -- -- 61
2020-10-29 23:00:00 16.4 2 Sudoeste 14 Nordeste 0 -- -- 60
2020-10-29 22:00:00 16.3 4 Oeste 15 Oeste 0 -- -- 59
2020-10-29 21:00:00 16.6 5 Oeste 19 Este 0 -- -- 52
2020-10-29 20:00:00 16.5 3 Oeste 9 Oeste 0 -- -- 52
2020-10-29 19:00:00 17.4 3 Sudoeste 14 Oeste 0 -- -- 50
2020-10-29 18:00:00 19.9 8 Oeste 17 Sur 0 -- -- 41
2020-10-29 17:00:00 22.1 6 Sudoeste 18 Sudoeste 0 -- -- 38
2020-10-29 16:00:00 23 5 Oeste 15 Sudeste 0 -- -- 35
2020-10-29 15:00:00 22.8 7 Oeste 18 Sur 0 -- -- 33
2020-10-29 14:00:00 23.2 6 Sudoeste 19 Sudoeste 0 -- -- 29
2020-10-29 13:00:00 22.4 6 Sur 17 Noroeste 0 -- -- 29
2020-10-29 12:00:00 20.3 8 Sudoeste 13 Sudoeste 0 -- -- 40
2020-10-29 11:00:00 18.7 5 Sudoeste 10 Sudoeste 0 -- -- 48
2020-10-29 10:00:00 16.6 3 Sudoeste 13 Oeste 0 -- -- 55
2020-10-29 09:00:00 13.8 2 Oeste 8 Nordeste 0 -- -- 54
2020-10-29 08:00:00 11.8 5 Nordeste 14 Nordeste 0 -- -- 72
2020-10-29 07:00:00 11.8 6 Nordeste 15 Nordeste 0 -- -- 73
2020-10-29 06:00:00 11.5 8 Nordeste 13 Nordeste 0 -- -- 78
2020-10-29 05:00:00 12 0 Calma 15 Nordeste 0 -- -- 75
2020-10-29 04:00:00 12.1 11 Nordeste 14 Nordeste 0 -- -- 77
2020-10-29 03:00:00 13.5 5 Nordeste 10 Nordeste 0 -- -- 71
2020-10-29 02:00:00 13.9 0 Calma 9 Nordeste 0 -- -- 66
2020-10-29 01:00:00 14.3 8 Nordeste 10 Nordeste 0 -- -- 65
2020-10-29 00:00:00 14.4 2 Nordeste 7 Este 0 -- -- 63
2020-10-28 23:00:00 15.2 3 Nordeste 8 Nordeste 0 -- -- 62
2020-10-28 22:00:00 14.8 6 Nordeste 9 Nordeste 0 -- -- 56
2020-10-28 21:00:00 15 6 Nordeste 8 Norte 0 -- -- 54
2020-10-28 20:00:00 15.3 3 Nordeste 7 Nordeste 0 -- -- 54
2020-10-28 19:00:00 15.8 0 Calma 4 Este 0 -- -- 53
2020-10-28 18:00:00 17.3 0 Calma 9 Sudoeste 0 -- -- 49
2020-10-28 17:00:00 18.9 6 Sudoeste 15 Oeste 0 -- -- 44
2020-10-28 16:00:00 20.7 10 Sudoeste 21 Sudoeste 0 -- -- 40
2020-10-28 15:00:00 20.9 10 Sudoeste 21 Sudoeste 0 -- -- 41
2020-10-28 14:00:00 20.6 10 Sudoeste 19 Sudoeste 0 -- -- 41
2020-10-28 13:00:00 19.8 9 Sudoeste 19 Sudoeste 0 -- -- 42
2020-10-28 12:00:00 18.7 6 Sudoeste 15 Sudoeste 0 -- -- 41
2020-10-28 11:00:00 17.4 5 Sudoeste 9 Oeste 0 -- -- 46
2020-10-28 10:00:00 15.4 3 Sudoeste 14 Norte 0 -- -- 48
2020-10-28 09:00:00 11 10 Nordeste 17 Norte 0 -- -- 62
2020-10-28 08:00:00 10.9 14 Norte 20 Norte 0 -- -- 61
2020-10-28 07:00:00 10.5 15 Norte 20 Norte 0 -- -- 63
2020-10-28 06:00:00 9.2 11 Norte 20 Norte 0 -- -- 71
2020-10-28 05:00:00 9.3 12 Norte 20 Norte 0 -- -- 71
2020-10-28 04:00:00 9.6 10 Norte 17 Norte 0 -- -- 69
2020-10-28 03:00:00 10.2 11 Norte 18 Norte 0 -- -- 66
2020-10-28 02:00:00 11.1 2 Norte 15 Norte 0 -- -- 62
2020-10-28 01:00:00 11.2 9 Norte 17 Noroeste 0 -- -- 61
2020-10-28 00:00:00 11.4 9 Norte 16 Norte 0 -- -- 60
2020-10-27 23:00:00 11.1 7 Nordeste 19 Norte 0 -- -- 61
2020-10-27 22:00:00 11.3 6 Norte 18 Norte 0 -- -- 62
2020-10-27 21:00:00 12 10 Norte 23 Norte 0 -- -- 60
2020-10-27 20:00:00 11.8 10 Norte 20 Norte 0 -- -- 65
2020-10-27 19:00:00 13.3 5 Nordeste 18 Norte 0 -- -- 59
2020-10-27 18:00:00 15.8 8 Nordeste 16 Norte 0 -- -- 51
2020-10-27 17:00:00 18.4 5 Norte 15 Norte 0 -- -- 45
2020-10-27 16:00:00 18.7 10 Sudoeste 16 Oeste 0 -- -- 44
2020-10-27 15:00:00 19.2 5 Norte 19 Norte 0 -- -- 36
2020-10-27 14:00:00 18.5 7 Norte 18 Norte 0 -- -- 36
2020-10-27 13:00:00 17.9 5 Norte 16 Norte 0 -- -- 38
2020-10-27 12:00:00 16.4 6 Norte 19 Nordeste 0 -- -- 44
2020-10-27 11:00:00 14 6 Norte 14 Nordeste 0 -- -- 54
2020-10-27 10:00:00 10.7 9 Nordeste 17 Nordeste 0 -- -- 68
2020-10-27 09:00:00 6.8 13 Nordeste 19 Nordeste 0 -- -- 82
2020-10-27 08:00:00 5.9 12 Nordeste 21 Norte 0 -- -- 86
2020-10-27 07:00:00 6.6 13 Nordeste 19 Nordeste 0 -- -- 83
2020-10-27 06:00:00 6.9 10 Norte 21 Norte 0 -- -- 82
2020-10-27 05:00:00 6.4 11 Nordeste 17 Norte 0 -- -- 85
2020-10-27 04:00:00 6.5 10 Nordeste 18 Nordeste 0 -- -- 86
2020-10-27 03:00:00 6.6 10 Nordeste 17 Nordeste 0 -- -- 85
2020-10-27 02:00:00 7.5 8 Nordeste 11 Norte 0 -- -- 82
2020-10-27 01:00:00 7.7 6 Nordeste 14 Este 0 -- -- 82
2020-10-27 00:00:00 7.9 8 Nordeste 14 Nordeste 0 -- -- 81